Time;durP1;ratioP1;P1;durP2;ratioP2;P2;SDS_P1;SDS_P2;PMS_P1;PMS_P2;Temp;Humidity;BMP_temperature;BMP_pressure;BME280_temperature;BME280_humidity;BME280_pressure;Samples;Min_cycle;Max_cycle;Signal;HPM_P1;HPM_P2
2022/06/25 00:01:13;;;;;;;21.67;18.55;;;;;;;;;;4406199;32;20023;-66
2022/06/25 00:03:39;;;;;;;19.92;18.05;;;;;;;;;;4405682;32;20344;-66
2022/06/25 00:06:05;;;;;;;22.48;20.05;;;;;;;;;;4405347;32;20026;-66
2022/06/25 00:08:30;;;;;;;23.25;20.65;;;;;;;;;;4405831;32;20026;-66
2022/06/25 00:10:56;;;;;;;22.48;19.98;;;;;;;;;;4406912;32;20110;-66
2022/06/25 00:13:21;;;;;;;25.40;20.08;;;;;;;;;;4404968;32;20281;-66
2022/06/25 00:15:47;;;;;;;23.27;19.87;;;;;;;;;;4405179;32;20094;-66
2022/06/25 00:18:12;;;;;;;22.15;19.83;;;;;;;;;;4391250;32;20027;-65
2022/06/25 00:20:38;;;;;;;24.77;22.25;;;;;;;;;;4405615;32;20136;-66
2022/06/25 00:23:03;;;;;;;24.02;21.60;;;;;;;;;;4406439;32;20029;-66
2022/06/25 00:25:28;;;;;;;23.98;21.27;;;;;;;;;;4407246;32;20402;-66
2022/06/25 00:27:53;;;;;;;23.50;20.75;;;;;;;;;;4405069;32;20068;-66
2022/06/25 00:30:19;;;;;;;25.95;21.05;;;;;;;;;;4407209;32;20019;-66
2022/06/25 00:32:44;;;;;;;26.62;23.30;;;;;;;;;;4407078;32;20041;-66
2022/06/25 00:35:09;;;;;;;24.92;21.12;;;;;;;;;;4406752;32;20030;-66
2022/06/25 00:37:35;;;;;;;22.80;18.92;;;;;;;;;;4405316;32;20079;-66
2022/06/25 00:40:00;;;;;;;20.27;18.15;;;;;;;;;;4378874;27;20047;-75
2022/06/25 00:42:25;;;;;;;21.95;19.60;;;;;;;;;;4375327;32;20031;-74
2022/06/25 00:44:53;;;;;;;19.15;17.23;;;;;;;;;;4375471;32;20022;-74
2022/06/25 00:47:28;;;;;;;19.83;17.80;;;;;;;;;;4376379;32;20027;-74
2022/06/25 00:49:54;;;;;;;18.27;16.48;;;;;;;;;;4375410;32;20073;-75
2022/06/25 00:52:20;;;;;;;17.80;16.15;;;;;;;;;;4375329;32;20102;-74
2022/06/25 00:54:49;;;;;;;20.23;16.60;;;;;;;;;;4375269;32;20062;-74
2022/06/25 00:57:17;;;;;;;17.20;15.40;;;;;;;;;;4375073;32;20414;-74
2022/06/25 00:59:44;;;;;;;17.85;14.45;;;;;;;;;;4375586;32;20057;-74
2022/06/25 01:02:32;;;;;;;16.30;13.52;;;;;;;;;;4375213;32;20027;-74
2022/06/25 01:05:00;;;;;;;16.00;13.00;;;;;;;;;;4375657;32;20497;-74
2022/06/25 01:07:25;;;;;;;15.35;13.35;;;;;;;;;;4376205;32;20062;-74
2022/06/25 01:09:54;;;;;;;14.82;13.13;;;;;;;;;;4375822;32;20031;-74
2022/06/25 01:12:23;;;;;;;18.55;13.15;;;;;;;;;;4375568;32;20053;-74
2022/06/25 01:17:52;;;;;;;14.23;12.73;;;;;;;;;;4375662;32;20360;-74
2022/06/25 01:20:37;;;;;;;16.08;11.43;;;;;;;;;;4375759;32;20057;-75
2022/06/25 01:23:07;;;;;;;13.98;10.73;;;;;;;;;;4357586;32;20110;-74
2022/06/25 01:25:34;;;;;;;13.10;11.70;;;;;;;;;;4377620;32;20040;-74
2022/06/25 01:28:00;;;;;;;12.57;11.27;;;;;;;;;;4378025;32;20080;-75
2022/06/25 01:30:25;;;;;;;18.27;11.15;;;;;;;;;;4378042;32;20035;-75
2022/06/25 01:32:52;;;;;;;17.65;11.35;;;;;;;;;;4377847;32;20076;-74
2022/06/25 01:35:17;;;;;;;11.10;9.95;;;;;;;;;;4379639;32;20038;-74
2022/06/25 01:37:43;;;;;;;11.38;10.02;;;;;;;;;;4377551;32;20381;-74
2022/06/25 01:40:08;;;;;;;17.05;10.13;;;;;;;;;;4392052;32;20376;-73
2022/06/25 01:45:18;;;;;;;11.23;9.65;;;;;;;;;;4393369;32;20067;-73
2022/06/25 01:47:43;;;;;;;13.93;8.65;;;;;;;;;;4392606;32;20031;-74
2022/06/25 01:50:09;;;;;;;13.10;8.73;;;;;;;;;;4392754;32;20026;-73
2022/06/25 01:52:34;;;;;;;11.45;7.15;;;;;;;;;;4392866;32;20027;-73
2022/06/25 01:55:02;;;;;;;10.30;7.50;;;;;;;;;;4378815;32;20064;-73
2022/06/25 01:57:41;;;;;;;9.82;7.75;;;;;;;;;;4379354;32;20372;-73
2022/06/25 02:00:14;;;;;;;8.48;6.53;;;;;;;;;;4392835;32;20077;-73
2022/06/25 02:02:41;;;;;;;11.85;6.15;;;;;;;;;;4393911;32;20039;-73
2022/06/25 02:05:07;;;;;;;10.18;6.78;;;;;;;;;;4392199;32;20104;-74
2022/06/25 02:07:32;;;;;;;8.38;6.35;;;;;;;;;;4392334;32;20023;-73
2022/06/25 02:10:00;;;;;;;9.38;6.25;;;;;;;;;;4392634;32;20035;-73
2022/06/25 02:12:26;;;;;;;10.18;6.68;;;;;;;;;;4392409;32;20065;-73
2022/06/25 02:14:51;;;;;;;9.27;5.82;;;;;;;;;;4378683;32;20385;-75
2022/06/25 02:17:17;;;;;;;9.93;6.18;;;;;;;;;;4378618;32;20095;-74
2022/06/25 02:19:48;;;;;;;7.18;6.00;;;;;;;;;;4392453;32;20152;-74
2022/06/25 02:22:14;;;;;;;10.90;6.05;;;;;;;;;;4392155;32;20030;-75
2022/06/25 02:24:42;;;;;;;11.88;6.57;;;;;;;;;;4379372;32;20022;-75
2022/06/25 02:27:08;;;;;;;8.75;5.90;;;;;;;;;;4392142;32;20022;-75
2022/06/25 02:29:33;;;;;;;7.35;6.10;;;;;;;;;;4392759;32;20089;-75
2022/06/25 02:32:02;;;;;;;9.30;6.43;;;;;;;;;;4379001;32;20018;-76
2022/06/25 02:34:28;;;;;;;7.90;6.22;;;;;;;;;;4391968;32;20049;-76
2022/06/25 02:36:56;;;;;;;8.88;6.40;;;;;;;;;;4391754;32;20050;-75
2022/06/25 02:39:21;;;;;;;8.52;6.37;;;;;;;;;;4391421;32;20100;-75
2022/06/25 02:41:46;;;;;;;11.82;5.85;;;;;;;;;;4391967;32;20022;-75
2022/06/25 02:44:12;;;;;;;14.93;6.20;;;;;;;;;;4391877;32;20042;-76
2022/06/25 02:46:37;;;;;;;9.45;6.25;;;;;;;;;;4392051;32;20061;-75
2022/06/25 02:49:03;;;;;;;11.20;6.43;;;;;;;;;;4391964;32;20022;-75
2022/06/25 02:51:29;;;;;;;9.70;6.12;;;;;;;;;;4378343;32;20045;-75
2022/06/25 02:53:55;;;;;;;8.73;6.25;;;;;;;;;;4391563;32;20057;-75
2022/06/25 02:59:08;;;;;;;9.13;5.85;;;;;;;;;;4391682;32;20404;-75
2022/06/25 03:01:34;;;;;;;19.05;6.40;;;;;;;;;;4391500;32;20057;-75
2022/06/25 03:03:59;;;;;;;9.57;6.00;;;;;;;;;;4392438;32;20427;-75
2022/06/25 03:06:25;;;;;;;12.48;7.15;;;;;;;;;;4392069;32;20510;-75
2022/06/25 03:08:50;;;;;;;14.90;6.07;;;;;;;;;;4392069;32;20053;-75
2022/06/25 03:11:16;;;;;;;11.40;6.78;;;;;;;;;;4391604;32;20068;-75
2022/06/25 03:14:00;;;;;;;10.63;7.95;;;;;;;;;;4391641;32;20018;-75
2022/06/25 03:16:25;;;;;;;13.80;7.90;;;;;;;;;;4391634;32;20383;-75
2022/06/25 03:18:51;;;;;;;12.50;8.75;;;;;;;;;;4391136;32;20026;-75
2022/06/25 03:21:17;;;;;;;12.73;8.43;;;;;;;;;;4378212;32;20467;-75
2022/06/25 03:23:42;;;;;;;13.15;9.07;;;;;;;;;;4391385;32;20031;-75
2022/06/25 03:26:21;;;;;;;12.60;8.55;;;;;;;;;;4391890;32;20027;-75
2022/06/25 03:28:49;;;;;;;10.95;9.30;;;;;;;;;;4391749;32;20094;-75
2022/06/25 03:31:24;;;;;;;13.75;9.40;;;;;;;;;;4392382;32;20027;-74
2022/06/25 03:33:50;;;;;;;11.48;8.20;;;;;;;;;;4392078;32;20085;-75
2022/06/25 03:36:15;;;;;;;14.55;8.63;;;;;;;;;;4391260;32;20403;-75
2022/06/25 03:38:51;;;;;;;;;;;;;;;;;;;;;
2022/06/25 03:44:33;;;;;;;12.00;7.12;;;;;;;;;;4390808;32;20132;-75
2022/06/25 03:46:58;;;;;;;19.90;7.32;;;;;;;;;;4385757;32;20022;-75
2022/06/25 03:49:23;;;;;;;9.77;5.30;;;;;;;;;;4390185;32;20052;-75
2022/06/25 03:51:49;;;;;;;6.60;5.12;;;;;;;;;;4391938;32;20049;-74
2022/06/25 03:54:15;;;;;;;11.27;5.68;;;;;;;;;;4391308;32;20436;-74
2022/06/25 03:56:58;;;;;;;7.60;4.62;;;;;;;;;;4391202;32;20050;-74
2022/06/25 03:59:51;;;;;;;5.90;5.00;;;;;;;;;;4390245;32;20085;-74
2022/06/25 04:02:32;;;;;;;6.25;4.70;;;;;;;;;;4390798;32;20395;-74
2022/06/25 04:05:18;;;;;;;7.60;5.43;;;;;;;;;;4390480;32;20031;-74
2022/06/25 04:07:49;;;;;;;7.60;6.05;;;;;;;;;;4376874;32;20083;-74
2022/06/25 04:10:39;;;;;;;9.77;5.32;;;;;;;;;;4373932;32;20062;-74
2022/06/25 04:19:19;;;;;;;8.40;5.47;;;;;;;;;;4372474;32;20055;-74
2022/06/25 04:22:29;;;;;;;8.30;5.55;;;;;;;;;;4390295;32;20052;-74
2022/06/25 04:25:16;;;;;;;8.25;4.82;;;;;;;;;;4316338;33;20039;-74
2022/06/25 04:33:27;;;;;;;7.15;4.97;;;;;;;;;;4318384;33;20089;-74
2022/06/25 04:35:52;;;;;;;13.07;4.60;;;;;;;;;;4350246;32;20030;-75
2022/06/25 04:38:21;;;;;;;9.20;4.03;;;;;;;;;;4390041;32;20035;-74
2022/06/25 04:40:47;;;;;;;8.93;4.20;;;;;;;;;;4376954;32;20427;-75
2022/06/25 04:43:12;;;;;;;9.05;3.85;;;;;;;;;;4390433;32;20042;-75
2022/06/25 04:45:43;;;;;;;8.00;3.85;;;;;;;;;;4390283;32;20057;-75
2022/06/25 04:48:17;;;;;;;8.55;3.62;;;;;;;;;;4390257;32;20027;-75
2022/06/25 04:50:44;;;;;;;5.50;3.42;;;;;;;;;;4391049;32;20018;-75
2022/06/25 04:53:09;;;;;;;6.70;3.60;;;;;;;;;;4377066;32;20080;-75
2022/06/25 04:55:42;;;;;;;8.13;3.75;;;;;;;;;;4370360;32;20435;-75
2022/06/25 04:58:10;;;;;;;6.68;3.55;;;;;;;;;;4390007;32;20026;-74
2022/06/25 05:00:35;;;;;;;7.30;3.42;;;;;;;;;;4392076;32;20437;-74
2022/06/25 05:03:01;;;;;;;8.68;4.07;;;;;;;;;;4393299;32;20026;-74
2022/06/25 05:06:01;;;;;;;6.32;3.42;;;;;;;;;;4393625;32;20026;-75
2022/06/25 05:08:18;;;;;;;6.53;3.28;;;;;;;;;;4391781;32;20030;-75
2022/06/25 05:10:43;;;;;;;7.22;3.40;;;;;;;;;;4393335;32;20022;-74
2022/06/25 05:13:14;;;;;;;10.93;3.78;;;;;;;;;;4393101;32;20030;-74
2022/06/25 05:15:52;;;;;;;7.72;3.83;;;;;;;;;;4393198;32;20054;-74
2022/06/25 05:18:21;;;;;;;7.28;3.33;;;;;;;;;;4392557;32;20114;-73
2022/06/25 05:20:47;;;;;;;8.77;3.97;;;;;;;;;;4380197;32;20039;-73
2022/06/25 05:23:13;;;;;;;10.68;3.97;;;;;;;;;;4392753;32;20026;-73
2022/06/25 05:25:38;;;;;;;9.95;3.28;;;;;;;;;;4393317;32;20022;-74
2022/06/25 05:28:04;;;;;;;10.75;4.03;;;;;;;;;;4393044;32;20045;-74
2022/06/25 05:30:29;;;;;;;7.50;3.80;;;;;;;;;;4393294;32;20391;-74
2022/06/25 05:32:54;;;;;;;5.95;3.42;;;;;;;;;;4393010;32;20053;-75
2022/06/25 05:35:20;;;;;;;9.48;3.75;;;;;;;;;;4392588;32;20030;-73
2022/06/25 05:37:45;;;;;;;10.32;3.50;;;;;;;;;;4392650;32;20407;-74
2022/06/25 05:40:11;;;;;;;8.73;4.07;;;;;;;;;;4392567;32;20069;-75
2022/06/25 05:42:36;;;;;;;7.90;3.50;;;;;;;;;;4393480;32;20324;-74
2022/06/25 05:45:02;;;;;;;6.47;3.28;;;;;;;;;;4392886;32;20045;-74
2022/06/25 05:47:33;;;;;;;8.98;3.60;;;;;;;;;;4393381;32;20401;-75
2022/06/25 05:49:58;;;;;;;10.95;3.90;;;;;;;;;;4393055;32;20087;-75
2022/06/25 05:52:24;;;;;;;10.60;4.60;;;;;;;;;;4392725;32;20030;-75
2022/06/25 05:54:50;;;;;;;13.57;3.37;;;;;;;;;;4393112;32;20030;-74
2022/06/25 05:57:15;;;;;;;8.45;3.80;;;;;;;;;;4392493;32;20054;-74
2022/06/25 05:59:41;;;;;;;8.85;3.62;;;;;;;;;;4392632;32;20023;-74
2022/06/25 06:02:06;;;;;;;12.32;3.60;;;;;;;;;;4392282;32;20038;-75
2022/06/25 06:04:32;;;;;;;9.98;3.65;;;;;;;;;;4392084;32;20146;-75
2022/06/25 06:07:04;;;;;;;9.88;3.65;;;;;;;;;;4378441;32;20022;-73
2022/06/25 06:09:41;;;;;;;;;;;;;;;;;;;;;
2022/06/25 06:12:13;;;;;;;10.05;3.85;;;;;;;;;;4389685;32;20061;-74
2022/06/25 06:14:38;;;;;;;9.00;3.97;;;;;;;;;;4387569;32;20026;-75
2022/06/25 06:17:04;;;;;;;6.35;3.25;;;;;;;;;;4392671;32;20069;-76
2022/06/25 06:19:29;;;;;;;8.10;3.78;;;;;;;;;;4391904;32;20435;-74
2022/06/25 06:22:05;;;;;;;8.85;3.30;;;;;;;;;;4392265;32;20026;-74
2022/06/25 06:24:30;;;;;;;8.02;3.83;;;;;;;;;;4392034;32;20060;-74
2022/06/25 06:27:09;;;;;;;;;;;;;;;;;;;;;
2022/06/25 06:29:35;;;;;;;7.85;3.20;;;;;;;;;;4392495;32;20035;-76
2022/06/25 06:32:00;;;;;;;5.18;3.00;;;;;;;;;;4391936;32;20315;-75
2022/06/25 06:34:25;;;;;;;9.98;3.40;;;;;;;;;;4392098;32;20062;-74
2022/06/25 06:36:51;;;;;;;8.30;3.80;;;;;;;;;;4392846;32;20045;-75
2022/06/25 06:39:27;;;;;;;10.15;3.78;;;;;;;;;;4390574;32;20034;-74
2022/06/25 06:41:53;;;;;;;9.20;3.10;;;;;;;;;;4390818;32;20077;-74
2022/06/25 06:44:18;;;;;;;9.27;3.33;;;;;;;;;;4378614;32;20337;-74
2022/06/25 06:46:43;;;;;;;9.57;3.10;;;;;;;;;;4392474;32;20086;-76
2022/06/25 06:49:11;;;;;;;12.20;3.65;;;;;;;;;;4391707;32;20057;-75
2022/06/25 06:51:37;;;;;;;8.27;2.97;;;;;;;;;;4391913;32;20046;-74
2022/06/25 06:54:02;;;;;;;10.38;3.10;;;;;;;;;;4392099;32;20091;-75
2022/06/25 06:56:57;;;;;;;;;;;;;;;;;;;;;
2022/06/25 06:59:25;;;;;;;5.72;3.22;;;;;;;;;;4393251;32;20064;-75
2022/06/25 07:01:50;;;;;;;8.30;3.47;;;;;;;;;;4391610;32;20019;-73
2022/06/25 07:04:16;;;;;;;12.18;3.67;;;;;;;;;;4391557;32;20129;-74
2022/06/25 07:06:41;;;;;;;11.07;3.72;;;;;;;;;;4391534;32;20056;-74
2022/06/25 07:09:06;;;;;;;6.18;2.75;;;;;;;;;;4391848;32;20026;-75
2022/06/25 07:11:32;;;;;;;9.63;3.10;;;;;;;;;;4377730;32;20031;-75
2022/06/25 07:13:58;;;;;;;6.95;2.97;;;;;;;;;;4391932;32;20042;-75
2022/06/25 07:16:32;;;;;;;9.57;3.95;;;;;;;;;;4391889;32;20022;-75
2022/06/25 07:19:04;;;;;;;8.98;3.00;;;;;;;;;;4391644;32;20422;-75
2022/06/25 07:21:30;;;;;;;6.65;3.53;;;;;;;;;;4377793;32;20027;-75
2022/06/25 07:23:58;;;;;;;7.47;3.75;;;;;;;;;;4391254;32;20460;-74
2022/06/25 07:26:24;;;;;;;12.50;4.18;;;;;;;;;;4377482;32;20057;-74
2022/06/25 07:29:01;;;;;;;8.18;4.07;;;;;;;;;;4391544;32;20027;-74
2022/06/25 07:31:29;;;;;;;7.62;3.30;;;;;;;;;;4392781;32;20084;-74
2022/06/25 07:33:57;;;;;;;7.93;3.80;;;;;;;;;;4390598;32;20403;-74
2022/06/25 07:36:33;;;;;;;6.35;3.90;;;;;;;;;;4376085;32;20161;-75
2022/06/25 07:39:02;;;;;;;8.93;3.62;;;;;;;;;;4376284;32;20057;-75
2022/06/25 07:41:27;;;;;;;14.43;3.47;;;;;;;;;;4375699;32;20035;-74
2022/06/25 07:43:53;;;;;;;5.68;2.90;;;;;;;;;;4376052;32;20081;-74
2022/06/25 07:52:06;;;;;;;5.97;3.67;;;;;;;;;;4295907;33;20024;-73
2022/06/25 07:54:31;;;;;;;8.23;3.42;;;;;;;;;;4359430;32;20027;-75
2022/06/25 07:56:57;;;;;;;5.87;3.12;;;;;;;;;;4375492;32;20057;-76
2022/06/25 07:59:26;;;;;;;9.73;3.50;;;;;;;;;;4375622;32;20023;-75
2022/06/25 08:02:03;;;;;;;7.45;3.10;;;;;;;;;;4375697;32;20053;-74
2022/06/25 08:04:28;;;;;;;7.15;3.40;;;;;;;;;;4375564;32;20064;-74
2022/06/25 08:07:09;;;;;;;7.07;3.22;;;;;;;;;;4376038;32;20410;-75
2022/06/25 08:09:41;;;;;;;11.15;3.83;;;;;;;;;;4376112;32;20077;-75
2022/06/25 08:12:10;;;;;;;8.68;3.53;;;;;;;;;;4375894;32;20054;-75
2022/06/25 08:14:47;;;;;;;8.27;3.67;;;;;;;;;;4375590;32;20473;-74
2022/06/25 08:17:14;;;;;;;8.73;3.67;;;;;;;;;;4375786;32;20050;-75
2022/06/25 08:19:40;;;;;;;5.97;3.20;;;;;;;;;;4375156;32;20386;-75
2022/06/25 08:22:08;;;;;;;9.48;3.53;;;;;;;;;;4375628;32;20478;-75
2022/06/25 08:24:33;;;;;;;6.05;3.37;;;;;;;;;;4374119;32;20441;-75
2022/06/25 08:26:59;;;;;;;6.15;3.25;;;;;;;;;;4375469;32;20073;-75
2022/06/25 08:29:27;;;;;;;5.15;3.00;;;;;;;;;;4375549;32;20408;-75
2022/06/25 08:31:58;;;;;;;9.45;3.58;;;;;;;;;;4375047;32;20413;-76
2022/06/25 08:34:26;;;;;;;7.93;3.50;;;;;;;;;;4374804;32;20026;-75
2022/06/25 08:42:59;;;;;;;11.35;3.58;;;;;;;;;;4374849;32;20450;-76
2022/06/25 08:45:24;;;;;;;9.23;3.70;;;;;;;;;;4375591;32;20027;-76
2022/06/25 08:47:50;;;;;;;8.70;3.60;;;;;;;;;;4375290;32;20190;-75
2022/06/25 08:50:17;;;;;;;11.95;3.28;;;;;;;;;;4375195;32;20066;-76
2022/06/25 08:52:46;;;;;;;9.05;3.12;;;;;;;;;;4375275;32;20388;-75
2022/06/25 08:55:20;;;;;;;7.15;2.83;;;;;;;;;;4374809;32;20039;-75
2022/06/25 08:57:48;;;;;;;10.55;3.75;;;;;;;;;;4375136;32;20023;-76
2022/06/25 09:00:16;;;;;;;7.10;2.80;;;;;;;;;;4375221;32;20023;-75
2022/06/25 09:02:45;;;;;;;13.10;3.03;;;;;;;;;;4375659;32;20073;-75
2022/06/25 09:05:10;;;;;;;7.45;3.28;;;;;;;;;;4375286;32;20031;-75
2022/06/25 09:07:36;;;;;;;7.37;2.75;;;;;;;;;;4373808;32;20407;-75
2022/06/25 09:10:02;;;;;;;7.50;3.60;;;;;;;;;;4375357;32;20458;-75
2022/06/25 09:12:28;;;;;;;10.65;4.28;;;;;;;;;;4374804;32;20081;-75
2022/06/25 09:14:53;;;;;;;8.60;3.87;;;;;;;;;;4374814;32;20119;-75
2022/06/25 09:17:18;;;;;;;9.70;4.60;;;;;;;;;;4374929;32;20042;-73
2022/06/25 09:19:48;;;;;;;13.48;4.82;;;;;;;;;;4375109;32;20050;-75
2022/06/25 09:22:14;;;;;;;11.43;5.53;;;;;;;;;;4374835;32;20067;-72
2022/06/25 09:24:40;;;;;;;12.60;6.55;;;;;;;;;;4375257;32;20023;-75
2022/06/25 09:27:06;;;;;;;9.82;5.22;;;;;;;;;;4374865;32;20431;-75
2022/06/25 09:29:38;;;;;;;11.35;5.57;;;;;;;;;;4375593;32;20019;-76
2022/06/25 09:32:03;;;;;;;11.60;4.95;;;;;;;;;;4375979;32;20377;-75
2022/06/25 09:34:33;;;;;;;10.10;5.25;;;;;;;;;;4373973;32;20077;-75
2022/06/25 09:37:23;;;;;;;11.82;4.95;;;;;;;;;;4374720;32;20060;-75
2022/06/25 09:39:49;;;;;;;10.45;4.82;;;;;;;;;;4391261;32;20088;-75
2022/06/25 09:42:22;;;;;;;11.63;5.30;;;;;;;;;;4389514;32;20046;-75
2022/06/25 09:44:47;;;;;;;11.20;5.25;;;;;;;;;;4390831;32;20030;-75
2022/06/25 09:47:16;;;;;;;19.23;6.22;;;;;;;;;;4391940;32;20401;-75
2022/06/25 09:49:44;;;;;;;8.05;4.75;;;;;;;;;;4393036;32;20031;-76
2022/06/25 09:52:11;;;;;;;14.80;6.25;;;;;;;;;;4392512;32;20034;-75
2022/06/25 09:54:36;;;;;;;9.82;6.03;;;;;;;;;;4392307;32;20026;-76
2022/06/25 09:57:02;;;;;;;13.00;6.87;;;;;;;;;;4392760;32;20360;-75
2022/06/25 09:59:29;;;;;;;17.40;5.72;;;;;;;;;;4392772;32;20026;-76
2022/06/25 10:01:54;;;;;;;14.27;5.80;;;;;;;;;;4392110;32;20057;-76
2022/06/25 10:04:20;;;;;;;16.75;5.50;;;;;;;;;;4392476;32;20030;-75
2022/06/25 10:06:46;;;;;;;12.55;6.20;;;;;;;;;;4392807;32;20453;-76
2022/06/25 10:09:12;;;;;;;23.08;9.75;;;;;;;;;;4392310;32;20023;-75
2022/06/25 10:11:37;;;;;;;12.93;5.78;;;;;;;;;;4392119;32;20076;-75
2022/06/25 10:14:03;;;;;;;14.52;6.95;;;;;;;;;;4391848;32;20031;-75
2022/06/25 10:16:31;;;;;;;17.45;6.60;;;;;;;;;;4391806;32;20433;-75
2022/06/25 10:18:56;;;;;;;15.57;7.18;;;;;;;;;;4392001;32;20034;-75
2022/06/25 10:21:23;;;;;;;17.48;6.72;;;;;;;;;;4392181;32;20019;-76
2022/06/25 10:23:50;;;;;;;17.02;6.75;;;;;;;;;;4391540;32;20026;-75
2022/06/25 10:26:15;;;;;;;10.88;5.50;;;;;;;;;;4392207;32;20121;-75
2022/06/25 10:28:44;;;;;;;13.82;7.05;;;;;;;;;;4377596;32;20019;-77
2022/06/25 10:31:13;;;;;;;10.30;4.53;;;;;;;;;;4391839;32;20030;-75
2022/06/25 10:33:58;;;;;;;10.85;4.82;;;;;;;;;;4392350;32;20026;-74
2022/06/25 10:36:41;;;;;;;6.95;4.10;;;;;;;;;;4378188;32;20047;-75
2022/06/25 10:39:36;;;;;;;7.53;4.70;;;;;;;;;;4391574;32;20050;-76
2022/06/25 10:44:54;;;;;;;10.20;4.37;;;;;;;;;;4377141;32;20068;-75
2022/06/25 10:47:36;;;;;;;14.77;5.00;;;;;;;;;;4377507;32;20019;-75
2022/06/25 10:53:08;;;;;;;12.75;5.72;;;;;;;;;;4376411;32;20065;-75
2022/06/25 10:56:06;;;;;;;;;;;;;;;;;;;;;
2022/06/25 10:58:43;;;;;;;7.70;4.82;;;;;;;;;;4376210;32;20052;-74
2022/06/25 11:01:17;;;;;;;9.82;5.90;;;;;;;;;;4376789;32;20129;-75
2022/06/25 11:03:43;;;;;;;12.90;5.40;;;;;;;;;;4375781;32;20019;-75
2022/06/25 11:06:26;;;;;;;10.05;5.37;;;;;;;;;;4375243;32;20058;-76
2022/06/25 11:08:52;;;;;;;11.02;5.55;;;;;;;;;;4376397;32;20034;-75
2022/06/25 11:11:27;;;;;;;10.07;6.60;;;;;;;;;;4376257;32;20068;-75
2022/06/25 11:13:53;;;;;;;11.27;6.20;;;;;;;;;;4376404;32;20024;-74
2022/06/25 11:16:19;;;;;;;10.73;6.03;;;;;;;;;;4376312;32;20378;-74
2022/06/25 11:19:05;;;;;;;8.63;5.82;;;;;;;;;;4376316;32;20065;-75
2022/06/25 11:21:37;;;;;;;7.05;5.40;;;;;;;;;;4376164;32;20076;-74
2022/06/25 11:24:24;;;;;;;9.80;5.68;;;;;;;;;;4376712;32;20031;-75
2022/06/25 11:30:14;;;;;;;6.25;4.20;;;;;;;;;;4376672;32;20050;-75
2022/06/25 11:33:06;;;;;;;8.50;4.50;;;;;;;;;;4375967;32;20027;-75
2022/06/25 11:35:48;;;;;;;;;;;;;;;;;;;;;
2022/06/25 11:38:23;;;;;;;7.47;4.65;;;;;;;;;;4375869;32;20069;-75
2022/06/25 11:44:09;;;;;;;5.53;4.72;;;;;;;;;;4344287;33;20028;-75
2022/06/25 11:49:43;;;;;;;5.50;4.15;;;;;;;;;;4391280;32;20112;-75
2022/06/25 12:04:51;;;;;;;7.37;4.10;;;;;;;;;;4329190;33;20047;-75
2022/06/25 12:13:45;;;;;;;4.80;2.87;;;;;;;;;;4329506;33;20067;-74
2022/06/25 12:16:30;;;;;;;5.75;2.70;;;;;;;;;;4328747;33;20036;-75
2022/06/25 12:18:58;;;;;;;4.87;2.55;;;;;;;;;;4343281;32;20054;-75
2022/06/25 12:21:26;;;;;;;5.28;2.55;;;;;;;;;;4390064;32;20031;-75
2022/06/25 12:23:58;;;;;;;4.60;2.47;;;;;;;;;;4389963;32;20088;-75
2022/06/25 12:26:25;;;;;;;2.33;2.00;;;;;;;;;;4390682;32;20027;-74
2022/06/25 12:29:10;;;;;;;4.62;2.28;;;;;;;;;;4376715;32;20027;-75
2022/06/25 12:31:36;;;;;;;4.12;1.70;;;;;;;;;;4390094;32;20112;-74
2022/06/25 12:34:08;;;;;;;4.32;2.28;;;;;;;;;;4390296;32;20027;-75
2022/06/25 12:36:38;;;;;;;3.90;1.98;;;;;;;;;;4390782;32;20022;-74
2022/06/25 12:39:23;;;;;;;6.40;1.87;;;;;;;;;;4390048;32;20088;-75
2022/06/25 12:41:51;;;;;;;4.47;2.20;;;;;;;;;;4381836;32;20035;-76
2022/06/25 12:44:24;;;;;;;2.83;1.62;;;;;;;;;;4376807;32;20050;-75
2022/06/25 12:46:59;;;;;;;6.50;2.53;;;;;;;;;;4390541;32;20022;-75
2022/06/25 12:49:37;;;;;;;4.65;1.80;;;;;;;;;;4390600;32;20442;-74
2022/06/25 12:52:03;;;;;;;3.78;1.87;;;;;;;;;;4390531;32;20043;-75
2022/06/25 12:54:28;;;;;;;4.37;1.50;;;;;;;;;;4390314;32;20049;-74
2022/06/25 12:57:03;;;;;;;3.33;1.60;;;;;;;;;;4389827;32;20089;-76
2022/06/25 12:59:29;;;;;;;2.70;1.83;;;;;;;;;;4376679;32;20076;-75
2022/06/25 13:02:03;;;;;;;7.00;2.20;;;;;;;;;;4389947;32;20038;-75
2022/06/25 13:07:48;;;;;;;4.50;1.77;;;;;;;;;;4365684;32;20396;-76
2022/06/25 13:10:14;;;;;;;3.55;1.70;;;;;;;;;;4390752;32;20026;-75
2022/06/25 13:12:50;;;;;;;;;;;;;;;;;;;;;
2022/06/25 13:30:06;;;;;;;3.72;1.40;;;;;;;;;;4334957;33;20115;-74
2022/06/25 13:32:32;;;;;;;4.03;1.80;;;;;;;;;;4346079;33;20070;-75
2022/06/25 13:35:19;;;;;;;2.62;1.48;;;;;;;;;;4355814;32;20436;-74
2022/06/25 13:37:47;;;;;;;2.80;1.60;;;;;;;;;;4384695;32;20042;-75
2022/06/25 13:40:12;;;;;;;3.33;1.60;;;;;;;;;;4392617;32;20156;-75
2022/06/25 13:42:38;;;;;;;5.37;1.95;;;;;;;;;;4392205;32;20046;-74
2022/06/25 13:45:03;;;;;;;2.67;1.80;;;;;;;;;;4392244;32;20065;-74
2022/06/25 13:47:29;;;;;;;2.35;1.48;;;;;;;;;;4392397;32;20031;-74
2022/06/25 13:49:57;;;;;;;3.22;1.70;;;;;;;;;;4392282;32;20053;-73
2022/06/25 13:52:23;;;;;;;3.12;1.50;;;;;;;;;;4392662;32;20472;-74
2022/06/25 13:54:51;;;;;;;4.78;1.92;;;;;;;;;;4378610;32;20053;-75
2022/06/25 13:57:17;;;;;;;3.85;2.17;;;;;;;;;;4392090;32;20026;-75
2022/06/25 13:59:42;;;;;;;3.72;1.90;;;;;;;;;;4392329;32;20443;-74
2022/06/25 14:02:07;;;;;;;3.47;1.60;;;;;;;;;;4393295;32;20371;-76
2022/06/25 14:04:35;;;;;;;2.50;1.73;;;;;;;;;;4392036;32;20344;-74
2022/06/25 14:07:04;;;;;;;3.00;1.85;;;;;;;;;;4392393;32;20102;-73
2022/06/25 14:09:30;;;;;;;4.57;2.20;;;;;;;;;;4392679;32;20056;-74
2022/06/25 14:11:55;;;;;;;2.90;1.70;;;;;;;;;;4392471;32;20027;-74
2022/06/25 14:17:34;;;;;;;3.58;2.08;;;;;;;;;;4360225;32;20081;-74
2022/06/25 14:20:02;;;;;;;5.90;2.20;;;;;;;;;;4377117;32;20019;-75
2022/06/25 14:25:34;;;;;;;4.28;2.00;;;;;;;;;;4393015;32;20360;-74
2022/06/25 14:28:06;;;;;;;3.55;2.00;;;;;;;;;;4392118;32;20030;-74
2022/06/25 14:30:36;;;;;;;3.78;2.10;;;;;;;;;;4392520;32;20049;-75
2022/06/25 14:42:32;;;;;;;4.85;2.10;;;;;;;;;;4390252;32;20084;-74
2022/06/25 14:51:13;;;;;;;3.60;2.28;;;;;;;;;;4392324;32;20033;-74
2022/06/25 14:53:39;;;;;;;4.13;2.37;;;;;;;;;;4392436;32;20027;-74
2022/06/25 14:56:10;;;;;;;3.58;1.67;;;;;;;;;;4391491;32;20149;-74
2022/06/25 14:58:37;;;;;;;4.40;2.05;;;;;;;;;;4391762;32;20027;-74
2022/06/25 15:01:12;;;;;;;3.22;2.20;;;;;;;;;;4392005;32;20117;-74
2022/06/25 15:03:37;;;;;;;7.30;2.60;;;;;;;;;;4378067;32;20018;-74
2022/06/25 15:06:04;;;;;;;3.53;2.10;;;;;;;;;;4391054;32;20027;-74
2022/06/25 15:08:29;;;;;;;4.53;1.90;;;;;;;;;;4391575;32;20042;-74
2022/06/25 15:10:55;;;;;;;4.07;1.87;;;;;;;;;;4391118;32;20118;-74
2022/06/25 15:13:20;;;;;;;7.47;2.50;;;;;;;;;;4391513;32;20035;-74
2022/06/25 15:15:48;;;;;;;5.32;2.50;;;;;;;;;;4391657;32;20509;-74
2022/06/25 15:18:15;;;;;;;5.80;2.70;;;;;;;;;;4391862;32;20357;-76
2022/06/25 15:20:40;;;;;;;4.55;2.42;;;;;;;;;;4391271;32;20087;-74
2022/06/25 15:23:05;;;;;;;7.53;2.53;;;;;;;;;;4377907;32;20424;-74
2022/06/25 15:25:31;;;;;;;5.35;2.72;;;;;;;;;;4391062;32;20023;-74
2022/06/25 15:27:56;;;;;;;5.07;2.60;;;;;;;;;;4377290;32;20533;-74
2022/06/25 15:31:12;;;;;;;4.35;2.40;;;;;;;;;;4391378;32;20056;-74
2022/06/25 15:33:20;;;;;;;5.80;3.00;;;;;;;;;;4379272;32;20079;-74
2022/06/25 15:35:48;;;;;;;6.03;3.08;;;;;;;;;;4391796;32;20053;-75
2022/06/25 15:38:13;;;;;;;8.52;2.90;;;;;;;;;;4391247;32;20081;-74
2022/06/25 15:40:39;;;;;;;3.60;2.70;;;;;;;;;;4390810;32;20053;-74
2022/06/25 15:43:04;;;;;;;4.28;3.10;;;;;;;;;;4390790;32;20074;-76
2022/06/25 15:45:33;;;;;;;10.45;2.80;;;;;;;;;;4391453;32;20303;-75
2022/06/25 15:47:58;;;;;;;5.05;2.47;;;;;;;;;;4390622;32;20080;-75
2022/06/25 15:50:23;;;;;;;6.60;2.92;;;;;;;;;;4391204;32;20039;-74
2022/06/25 15:52:49;;;;;;;6.72;3.17;;;;;;;;;;4390912;32;20412;-74
2022/06/25 15:55:15;;;;;;;7.22;3.40;;;;;;;;;;4390685;32;20053;-74
2022/06/25 15:57:56;;;;;;;7.07;5.32;;;;;;;;;;4390832;32;20038;-74
2022/06/25 16:00:38;;;;;;;10.45;6.85;;;;;;;;;;4390981;32;20101;-74
2022/06/25 16:03:03;;;;;;;6.15;4.30;;;;;;;;;;4390560;32;20439;-75
2022/06/25 16:05:30;;;;;;;6.35;3.47;;;;;;;;;;4390692;32;20023;-75
2022/06/25 16:07:56;;;;;;;6.32;5.05;;;;;;;;;;4377118;32;20101;-74
2022/06/25 16:10:25;;;;;;;8.88;4.97;;;;;;;;;;4390671;32;20023;-74
2022/06/25 16:12:50;;;;;;;6.05;5.30;;;;;;;;;;4390385;32;20446;-74
2022/06/25 16:15:15;;;;;;;8.02;4.68;;;;;;;;;;4390766;32;20057;-75
2022/06/25 16:17:44;;;;;;;9.55;5.95;;;;;;;;;;4390775;32;20019;-74
2022/06/25 16:20:09;;;;;;;7.78;5.60;;;;;;;;;;4390785;32;20031;-75
2022/06/25 16:22:35;;;;;;;13.18;7.12;;;;;;;;;;4390104;32;20056;-74
2022/06/25 16:25:01;;;;;;;13.60;7.00;;;;;;;;;;4390446;32;20454;-73
2022/06/25 16:27:26;;;;;;;8.80;5.93;;;;;;;;;;4389904;32;20412;-75
2022/06/25 16:29:51;;;;;;;8.02;5.32;;;;;;;;;;4390398;32;20357;-74
2022/06/25 16:32:17;;;;;;;7.00;4.85;;;;;;;;;;4390567;32;20022;-76
2022/06/25 16:34:42;;;;;;;7.78;5.72;;;;;;;;;;4391167;32;20023;-74
2022/06/25 16:37:07;;;;;;;6.15;4.15;;;;;;;;;;4390775;32;20026;-75
2022/06/25 16:39:33;;;;;;;10.10;5.85;;;;;;;;;;4390186;32;20431;-75
2022/06/25 16:41:58;;;;;;;6.32;3.85;;;;;;;;;;4389955;32;20042;-75
2022/06/25 16:44:24;;;;;;;7.07;4.22;;;;;;;;;;4389866;32;20046;-74